createdAt,value
2023-02-06T00:00:11.151Z,1022.5
2023-02-06T00:02:11.116Z,1022.4
2023-02-06T00:04:21.203Z,1022.4
2023-02-06T00:06:11.082Z,1022.5
2023-02-06T00:08:10.958Z,1022.4
2023-02-06T00:10:12.504Z,1022.4
2023-02-06T00:12:11.047Z,1022.4
2023-02-06T00:14:25.206Z,1022.5
2023-02-06T00:16:11.067Z,1022.4
2023-02-06T00:18:11.023Z,1022.5
2023-02-06T00:20:11.213Z,1022.4
2023-02-06T00:22:11.077Z,1022.2
2023-02-06T00:24:15.191Z,1022.2
2023-02-06T00:26:10.981Z,1022.2
2023-02-06T00:28:10.956Z,1022.2
2023-02-06T00:30:10.983Z,1022.2
2023-02-06T00:32:11.022Z,1022.2
2023-02-06T00:34:39.734Z,1022.3
2023-02-06T00:36:11.091Z,1022.2
2023-02-06T00:38:11.072Z,1022.3
2023-02-06T00:40:10.963Z,1022.1
2023-02-06T00:42:11.038Z,1022.1
2023-02-06T00:44:10.957Z,1022
2023-02-06T00:46:11.110Z,1022
2023-02-06T00:48:10.998Z,1022
2023-02-06T00:50:10.995Z,1022
2023-02-06T00:52:11.034Z,1022
2023-02-06T00:54:10.970Z,1021.9
2023-02-06T00:56:10.973Z,1021.8
2023-02-06T00:58:10.957Z,1021.7
2023-02-06T01:00:10.979Z,1021.7
2023-02-06T01:02:10.926Z,1021.6
2023-02-06T01:04:10.951Z,1021.6
2023-02-06T01:06:11.027Z,1021.5
2023-02-06T01:08:12.466Z,1021.5
2023-02-06T01:10:12.026Z,1021.4
2023-02-06T01:12:15.320Z,1021.3
2023-02-06T01:14:13.820Z,1021.3
2023-02-06T01:16:11.107Z,1021.3
2023-02-06T01:18:10.939Z,1021.2
2023-02-06T01:20:10.924Z,1021.2
2023-02-06T01:22:10.948Z,1021.2
2023-02-06T01:24:10.869Z,1021.1
2023-02-06T01:26:10.892Z,1021.1
2023-02-06T01:28:10.981Z,1021
2023-02-06T01:30:10.937Z,1021
2023-02-06T01:32:10.888Z,1021
2023-02-06T01:34:10.856Z,1021
2023-02-06T01:36:10.863Z,1020.9
2023-02-06T01:38:10.866Z,1020.9
2023-02-06T01:40:11.001Z,1020.8
2023-02-06T01:42:10.933Z,1020.8
2023-02-06T01:44:10.955Z,1020.8
2023-02-06T01:46:12.453Z,1020.8
2023-02-06T01:48:10.879Z,1020.7
2023-02-06T01:50:10.870Z,1020.7
2023-02-06T01:52:10.832Z,1020.6
2023-02-06T01:54:10.854Z,1020.6
2023-02-06T01:56:10.851Z,1020.5
2023-02-06T01:58:10.882Z,1020.5
2023-02-06T02:00:10.835Z,1020.5
2023-02-06T02:02:10.857Z,1020.4
2023-02-06T02:04:10.950Z,1020.4
2023-02-06T02:06:10.832Z,1020.3
2023-02-06T02:08:10.874Z,1020.3
2023-02-06T02:10:10.788Z,1020.2
2023-02-06T02:12:10.835Z,1020.2
2023-02-06T02:14:10.866Z,1020.2
2023-02-06T02:16:11.012Z,1020.2
2023-02-06T02:18:10.833Z,1020.1
2023-02-06T02:20:10.815Z,1020.1
2023-02-06T02:22:10.949Z,1020.1
2023-02-06T02:24:10.840Z,1020.1
2023-02-06T02:26:10.850Z,1020
2023-02-06T02:28:10.884Z,1020
2023-02-06T02:30:10.840Z,1020
2023-02-06T02:32:10.831Z,1020
2023-02-06T02:34:10.830Z,1020.1
2023-02-06T02:36:10.800Z,1020.1
2023-02-06T02:38:10.788Z,1020.1
2023-02-06T02:40:10.770Z,1020.1
2023-02-06T02:42:10.844Z,1020
2023-02-06T02:44:10.899Z,1020.1
2023-02-06T02:46:10.804Z,1020.1
2023-02-06T02:49:07.894Z,1020.1
2023-02-06T02:49:31.734Z,1020.1
2023-02-06T02:50:24.194Z,1020
2023-02-06T02:52:25.526Z,1019.8
2023-02-06T02:54:24.136Z,1019.7
2023-02-06T02:56:24.157Z,1019.6
2023-02-06T02:58:24.107Z,1019.6
2023-02-06T03:00:24.142Z,1019.6
2023-02-06T03:02:24.219Z,1019.5
2023-02-06T03:04:24.141Z,1019.5
2023-02-06T03:06:24.100Z,1019.5
2023-02-06T03:08:24.123Z,1019.4
2023-02-06T03:10:24.121Z,1019.3
2023-02-06T03:12:24.310Z,1019.3
2023-02-06T03:14:24.226Z,1019.3
2023-02-06T03:16:24.222Z,1019.3
2023-02-06T03:18:24.099Z,1019.2
2023-02-06T03:20:24.123Z,1019.2
2023-02-06T03:22:24.101Z,1019.1
2023-02-06T03:24:24.077Z,1019
2023-02-06T03:26:24.123Z,1019
2023-02-06T03:28:24.105Z,1019
2023-02-06T03:30:24.132Z,1018.9
2023-02-06T03:32:24.163Z,1018.9
2023-02-06T03:34:24.082Z,1018.9
2023-02-06T03:36:24.168Z,1019
2023-02-06T03:38:24.073Z,1019
2023-02-06T03:40:24.104Z,1019
2023-02-06T03:42:24.332Z,1019
2023-02-06T03:44:25.505Z,1019
2023-02-06T03:46:24.123Z,1019
2023-02-06T03:48:24.099Z,1019
2023-02-06T03:50:24.069Z,1019
2023-02-06T03:52:24.077Z,1019
2023-02-06T03:54:24.098Z,1018.9
2023-02-06T03:56:24.067Z,1018.8
2023-02-06T03:58:24.651Z,1018.8
2023-02-06T04:00:24.089Z,1018.8
2023-02-06T04:02:24.087Z,1018.8
2023-02-06T04:04:24.078Z,1018.7
2023-02-06T04:06:24.075Z,1018.7
2023-02-06T04:08:24.123Z,1018.6
2023-02-06T04:10:26.149Z,1018.6
2023-02-06T04:12:24.090Z,1018.5
2023-02-06T04:14:24.079Z,1018.5
2023-02-06T04:16:24.161Z,1018.5
2023-02-06T04:18:24.149Z,1018.5
2023-02-06T04:20:24.003Z,1018.5
2023-02-06T04:22:25.543Z,1018.5
2023-02-06T04:24:24.125Z,1018.4
2023-02-06T04:26:25.204Z,1018.3
2023-02-06T04:28:24.013Z,1018.3
2023-02-06T04:30:27.008Z,1018.3
2023-02-06T04:32:25.410Z,1018.2
2023-02-06T04:34:24.101Z,1018.1
2023-02-06T04:36:37.828Z,1018.1
2023-02-06T04:38:22.134Z,1018.1
2023-02-06T04:38:54.182Z,1018
2023-02-06T04:40:24.085Z,1018
2023-02-06T04:42:24.015Z,1018
2023-02-06T04:44:24.268Z,1018
2023-02-06T04:46:24.048Z,1018
2023-02-06T04:48:24.140Z,1018
2023-02-06T04:50:24.170Z,1018
2023-02-06T04:52:25.178Z,1018
2023-02-06T04:54:26.137Z,1018
2023-02-06T04:56:23.978Z,1017.9
2023-02-06T04:58:34.401Z,1017.9
2023-02-06T05:00:24.068Z,1017.9
2023-02-06T05:02:24.057Z,1017.9
2023-02-06T05:04:23.996Z,1017.9
2023-02-06T05:06:24.121Z,1017.9
2023-02-06T05:08:23.951Z,1017.9
2023-02-06T05:10:24.135Z,1017.9
2023-02-06T05:12:24.330Z,1017.9
2023-02-06T05:14:24.091Z,1017.9
2023-02-06T05:16:25.087Z,1017.8
2023-02-06T05:16:59.327Z,1017.8
2023-02-06T05:18:23.934Z,1017.7
2023-02-06T05:20:24.039Z,1017.7
2023-02-06T05:22:24.152Z,1017.6
2023-02-06T05:24:25.106Z,1017.6
2023-02-06T05:26:23.909Z,1017.6
2023-02-06T05:28:23.961Z,1017.5
2023-02-06T05:30:23.974Z,1017.5
2023-02-06T05:32:23.956Z,1017.5
2023-02-06T05:34:23.982Z,1017.4
2023-02-06T05:36:23.938Z,1017.3
2023-02-06T05:38:24.003Z,1017.3
2023-02-06T05:40:23.927Z,1017.2
2023-02-06T05:42:23.935Z,1017.2
2023-02-06T05:44:23.906Z,1017.1
2023-02-06T05:46:23.987Z,1017.1
2023-02-06T05:48:23.922Z,1017
2023-02-06T05:50:23.944Z,1016.9
2023-02-06T05:52:23.995Z,1016.8
2023-02-06T05:54:23.924Z,1016.7
2023-02-06T05:56:23.945Z,1016.6
2023-02-06T05:58:23.925Z,1016.6
2023-02-06T06:00:23.915Z,1016.6
2023-02-06T06:02:23.913Z,1016.5
2023-02-06T06:04:23.982Z,1016.4
2023-02-06T06:06:23.877Z,1016.3
2023-02-06T06:08:23.936Z,1016.3
2023-02-06T06:10:23.920Z,1016.3
2023-02-06T06:12:23.927Z,1016.3
2023-02-06T06:14:23.933Z,1016.2
2023-02-06T06:16:23.942Z,1016.3
2023-02-06T06:18:23.893Z,1016.2
2023-02-06T06:20:23.900Z,1016.2
2023-02-06T06:22:24.081Z,1016.2
2023-02-06T06:24:23.849Z,1016.2
2023-02-06T06:26:23.900Z,1016.2
2023-02-06T06:28:23.980Z,1016.2
2023-02-06T06:30:26.468Z,1016.2
2023-02-06T06:32:23.937Z,1016.1
2023-02-06T06:34:23.841Z,1016.1
2023-02-06T06:36:23.895Z,1016.1
2023-02-06T06:38:23.863Z,1016.1
2023-02-06T06:40:23.865Z,1016.1
2023-02-06T06:42:23.837Z,1016.1
2023-02-06T06:44:23.880Z,1016
2023-02-06T06:46:23.865Z,1016
2023-02-06T06:48:23.864Z,1015.9
2023-02-06T06:50:23.815Z,1015.9
2023-02-06T06:52:25.499Z,1015.9
2023-02-06T06:54:23.850Z,1015.8
2023-02-06T06:56:23.976Z,1015.8
2023-02-06T06:58:23.935Z,1015.8
2023-02-06T07:00:23.845Z,1015.9
2023-02-06T07:02:23.884Z,1015.9
2023-02-06T07:04:23.854Z,1015.9
2023-02-06T07:06:23.829Z,1015.9
2023-02-06T07:08:23.812Z,1015.9
2023-02-06T07:10:23.832Z,1015.9
2023-02-06T07:12:23.825Z,1015.8
2023-02-06T07:14:23.860Z,1015.9
2023-02-06T07:16:23.834Z,1015.8
2023-02-06T07:18:23.908Z,1015.8
2023-02-06T07:20:23.884Z,1015.7
2023-02-06T07:22:23.836Z,1015.6
2023-02-06T07:24:23.813Z,1015.6
2023-02-06T07:26:23.804Z,1015.6
2023-02-06T07:28:23.831Z,1015.6
2023-02-06T07:30:23.952Z,1015.6
2023-02-06T07:32:23.864Z,1015.6
2023-02-06T07:34:23.788Z,1015.5
2023-02-06T07:36:23.831Z,1015.4
2023-02-06T07:38:23.839Z,1015.4
2023-02-06T07:40:25.154Z,1015.3
2023-02-06T07:42:23.862Z,1015.3
2023-02-06T07:44:23.742Z,1015.3
2023-02-06T07:46:23.920Z,1015.2
2023-02-06T07:48:23.828Z,1015.2
2023-02-06T07:50:23.743Z,1015.2
2023-02-06T07:52:23.747Z,1015.2
2023-02-06T07:54:23.813Z,1015.3
2023-02-06T07:56:23.757Z,1015.3
2023-02-06T07:58:23.790Z,1015.3
2023-02-06T08:00:23.851Z,1015.2
2023-02-06T08:02:23.804Z,1015.1
2023-02-06T08:04:26.266Z,1015.1
2023-02-06T08:06:24.411Z,1015.1
2023-02-06T08:08:23.762Z,1015.1
2023-02-06T08:10:23.715Z,1015.1
2023-02-06T08:12:23.759Z,1015.1
2023-02-06T08:14:23.760Z,1015
2023-02-06T08:16:23.791Z,1015
2023-02-06T08:18:23.706Z,1015
2023-02-06T08:20:23.706Z,1014.9
2023-02-06T08:22:23.782Z,1014.9
2023-02-06T08:24:23.749Z,1014.9
2023-02-06T08:26:23.757Z,1014.9
2023-02-06T08:28:23.733Z,1014.9
2023-02-06T08:30:23.819Z,1014.8
2023-02-06T08:32:23.734Z,1014.8
2023-02-06T08:34:23.744Z,1014.9
2023-02-06T08:36:23.735Z,1014.8
2023-02-06T08:38:23.758Z,1014.8
2023-02-06T08:40:34.239Z,1014.8
2023-02-06T08:42:23.736Z,1014.9
2023-02-06T08:44:23.733Z,1014.9
2023-02-06T08:46:23.775Z,1014.9
2023-02-06T08:48:23.746Z,1014.9
2023-02-06T08:50:23.756Z,1014.9
2023-02-06T08:52:23.720Z,1014.8
2023-02-06T08:54:23.652Z,1014.8
2023-02-06T08:56:23.701Z,1014.8
2023-02-06T08:58:23.725Z,1014.8
2023-02-06T09:00:23.785Z,1014.8
2023-02-06T09:02:23.658Z,1014.8
2023-02-06T09:04:23.760Z,1014.8
2023-02-06T09:06:23.700Z,1014.8
2023-02-06T09:08:23.700Z,1014.8
2023-02-06T09:10:27.620Z,1014.8
2023-02-06T09:12:23.643Z,1014.8
2023-02-06T09:14:23.710Z,1014.8
2023-02-06T09:16:23.783Z,1014.9
2023-02-06T09:18:23.663Z,1014.9
2023-02-06T09:20:23.697Z,1014.8
2023-02-06T09:22:23.625Z,1014.8
2023-02-06T09:24:23.688Z,1014.8
2023-02-06T09:26:23.660Z,1014.8
2023-02-06T09:28:23.800Z,1014.7
2023-02-06T09:30:23.999Z,1014.7
2023-02-06T09:32:23.629Z,1014.7
2023-02-06T09:34:33.333Z,1014.7
2023-02-06T09:36:23.668Z,1014.8
2023-02-06T09:38:23.682Z,1014.8
2023-02-06T09:40:23.752Z,1014.8
2023-02-06T09:42:23.621Z,1014.8
2023-02-06T09:44:23.641Z,1014.8
2023-02-06T09:46:23.684Z,1014.8
2023-02-06T09:48:23.632Z,1014.8
2023-02-06T09:50:23.633Z,1014.8
2023-02-06T09:52:23.632Z,1014.8
2023-02-06T09:54:23.626Z,1014.8
2023-02-06T09:56:23.642Z,1014.8
2023-02-06T09:58:23.603Z,1014.8
2023-02-06T10:00:23.689Z,1014.8
2023-02-06T10:02:23.611Z,1014.8
2023-02-06T10:04:23.645Z,1014.8
2023-02-06T10:06:23.582Z,1014.8
2023-02-06T10:08:23.642Z,1014.8
2023-02-06T10:10:23.626Z,1014.8
2023-02-06T10:12:23.670Z,1014.8
2023-02-06T10:14:23.661Z,1014.8
2023-02-06T10:16:23.657Z,1014.8
2023-02-06T10:18:23.624Z,1014.8
2023-02-06T10:20:23.598Z,1014.8
2023-02-06T10:22:23.646Z,1014.8
2023-02-06T10:24:23.577Z,1014.8
2023-02-06T10:26:23.607Z,1014.8
2023-02-06T10:28:23.667Z,1014.8
2023-02-06T10:30:23.607Z,1014.9
2023-02-06T10:32:23.699Z,1014.9
2023-02-06T10:34:23.536Z,1014.9
2023-02-06T10:36:23.577Z,1014.9
2023-02-06T10:38:23.618Z,1014.9
2023-02-06T10:40:23.619Z,1015
2023-02-06T10:42:23.521Z,1015
2023-02-06T10:44:25.080Z,1015
2023-02-06T10:46:23.666Z,1014.9
2023-02-06T10:48:23.602Z,1014.9
2023-02-06T10:50:23.573Z,1014.9
2023-02-06T10:52:23.573Z,1015
2023-02-06T10:54:23.511Z,1015
2023-02-06T10:56:23.546Z,1015
2023-02-06T10:58:23.530Z,1015.1
2023-02-06T11:00:23.548Z,1015.1
2023-02-06T11:02:23.581Z,1015.1
2023-02-06T11:04:23.532Z,1015.1
2023-02-06T11:06:23.485Z,1015.1
2023-02-06T11:08:23.551Z,1015.2
2023-02-06T11:10:23.576Z,1015.1
2023-02-06T11:12:23.554Z,1015.2
2023-02-06T11:14:25.013Z,1015.2
2023-02-06T11:16:23.647Z,1015.2
2023-02-06T11:18:23.561Z,1015.2
2023-02-06T11:20:23.627Z,1015.2
2023-02-06T11:22:23.556Z,1015.2
2023-02-06T11:24:23.489Z,1015.2
2023-02-06T11:26:23.533Z,1015.2
2023-02-06T11:28:23.649Z,1015.3
2023-02-06T11:30:23.582Z,1015.3
2023-02-06T11:32:23.492Z,1015.3
2023-02-06T11:34:23.538Z,1015.3
2023-02-06T11:36:23.515Z,1015.3
2023-02-06T11:38:23.517Z,1015.4
2023-02-06T11:40:23.518Z,1015.4
2023-02-06T11:42:23.452Z,1015.4
2023-02-06T11:44:23.498Z,1015.4
2023-02-06T11:46:23.608Z,1015.4
2023-02-06T11:48:23.573Z,1015.5
2023-02-06T11:50:23.638Z,1015.5
2023-02-06T11:52:23.589Z,1015.5
2023-02-06T11:54:23.679Z,1015.5
2023-02-06T11:56:23.541Z,1015.6
2023-02-06T11:58:24.816Z,1015.6
2023-02-06T12:00:29.332Z,1015.6
2023-02-06T12:02:23.614Z,1015.6
2023-02-06T12:04:38.176Z,1015.6
2023-02-06T12:07:42.279Z,1015.6
2023-02-06T12:08:27.990Z,1015.6
2023-02-06T12:10:06.761Z,1015.7
2023-02-06T12:12:06.783Z,1015.7
2023-02-06T12:14:06.694Z,1015.7
2023-02-06T12:16:06.721Z,1015.7
2023-02-06T12:18:11.880Z,1015.8
2023-02-06T12:20:06.651Z,1015.8
2023-02-06T12:22:06.882Z,1015.8
2023-02-06T12:24:06.910Z,1015.8
2023-02-06T12:26:06.726Z,1015.8
2023-02-06T12:28:06.703Z,1015.9
2023-02-06T12:30:08.085Z,1015.9
2023-02-06T12:32:16.843Z,1015.9
2023-02-06T12:34:14.493Z,1015.9
2023-02-06T12:36:09.104Z,1016
2023-02-06T12:38:06.767Z,1016
2023-02-06T12:40:09.253Z,1016.1
2023-02-06T12:42:07.887Z,1016.2
2023-02-06T12:44:08.062Z,1016.2
2023-02-06T12:46:29.169Z,1016.2
2023-02-06T12:48:06.709Z,1016.2
2023-02-06T12:50:09.156Z,1016.1
2023-02-06T12:52:08.013Z,1016.2
2023-02-06T12:54:06.819Z,1016.2
2023-02-06T12:56:06.865Z,1016.2
2023-02-06T12:58:06.844Z,1016.3
2023-02-06T13:00:32.171Z,1016.3
2023-02-06T13:01:24.575Z,1016.3
2023-02-06T13:02:12.679Z,1016.3
2023-02-06T13:04:08.956Z,1016.4
2023-02-06T13:06:09.188Z,1016.4
2023-02-06T13:08:09.258Z,1016.4
2023-02-06T13:10:18.572Z,1016.5
2023-02-06T13:12:21.452Z,1016.5
2023-02-06T13:14:06.625Z,1016.5
2023-02-06T13:16:09.377Z,1016.5
2023-02-06T13:18:06.741Z,1016.6
2023-02-06T13:20:06.586Z,1016.6
2023-02-06T13:22:06.675Z,1016.5
2023-02-06T13:24:07.878Z,1016.6
2023-02-06T13:26:30.891Z,1016.5
2023-02-06T13:28:06.678Z,1016.6
2023-02-06T13:30:06.619Z,1016.6
2023-02-06T13:32:06.632Z,1016.7
2023-02-06T13:34:06.612Z,1016.7
2023-02-06T13:36:10.797Z,1016.7
2023-02-06T13:38:07.211Z,1016.7
2023-02-06T13:40:09.044Z,1016.7
2023-02-06T13:42:14.196Z,1016.8
2023-02-06T13:44:09.591Z,1016.7
2023-02-06T13:46:07.949Z,1016.7
2023-02-06T13:48:06.738Z,1016.8
2023-02-06T13:50:06.580Z,1016.8
2023-02-06T13:52:06.580Z,1016.9
2023-02-06T13:54:09.698Z,1016.9
2023-02-06T13:56:06.607Z,1016.9
2023-02-06T13:58:06.606Z,1017
2023-02-06T14:00:06.538Z,1017
2023-02-06T14:02:06.590Z,1017.1
2023-02-06T14:04:18.136Z,1017
2023-02-06T14:06:06.529Z,1017.1
2023-02-06T14:08:09.091Z,1017.1
2023-02-06T14:10:06.638Z,1017
2023-02-06T14:12:06.639Z,1017.1
2023-02-06T14:13:23.921Z,1017.1
2023-02-06T14:14:08.076Z,1017.1
2023-02-06T14:18:09.821Z,1017.1
2023-02-06T14:18:35.796Z,1017.1
2023-02-06T14:20:09.285Z,1017.1
2023-02-06T14:36:08.557Z,1017.3
2023-02-06T14:37:49.979Z,1017.3
2023-02-06T14:39:50.043Z,1017.4
2023-02-06T14:41:50.009Z,1017.4
2023-02-06T14:43:49.994Z,1017.4
2023-02-06T14:46:04.447Z,1017.4
2023-02-06T14:47:50.005Z,1017.4
2023-02-06T14:49:49.999Z,1017.5
2023-02-06T14:51:49.984Z,1017.5
2023-02-06T14:53:49.988Z,1017.6
2023-02-06T14:55:49.971Z,1017.6
2023-02-06T14:57:49.974Z,1017.6
2023-02-06T14:59:50.041Z,1017.6
2023-02-06T15:01:49.975Z,1017.6
2023-02-06T15:03:50.032Z,1017.6
2023-02-06T15:05:49.948Z,1017.7
2023-02-06T15:07:49.967Z,1017.7
2023-02-06T15:09:49.971Z,1017.6
2023-02-06T15:11:49.981Z,1017.6
2023-02-06T15:13:49.984Z,1017.6
2023-02-06T15:15:49.968Z,1017.5
2023-02-06T15:17:49.926Z,1017.6
2023-02-06T15:19:49.969Z,1017.5
2023-02-06T15:21:49.919Z,1017.7
2023-02-06T15:23:49.929Z,1017.7
2023-02-06T15:25:49.934Z,1017.7
2023-02-06T15:27:49.962Z,1017.8
2023-02-06T15:29:49.950Z,1017.8
2023-02-06T15:31:50.057Z,1017.7
2023-02-06T15:33:49.916Z,1017.7
2023-02-06T15:35:49.915Z,1017.8
2023-02-06T15:37:49.961Z,1017.8
2023-02-06T15:39:49.966Z,1017.8
2023-02-06T15:41:49.958Z,1017.7
2023-02-06T15:43:49.922Z,1017.8
2023-02-06T15:45:50.039Z,1017.8
2023-02-06T15:47:49.917Z,1017.8
2023-02-06T15:49:49.924Z,1017.8
2023-02-06T15:51:49.905Z,1017.8
2023-02-06T15:53:49.902Z,1017.9
2023-02-06T15:55:49.902Z,1017.9
2023-02-06T15:57:49.900Z,1017.8
2023-02-06T15:59:49.906Z,1017.8
2023-02-06T16:01:49.913Z,1017.8
2023-02-06T16:03:49.942Z,1017.7
2023-02-06T16:05:49.920Z,1017.7
2023-02-06T16:07:49.923Z,1017.7
2023-02-06T16:09:51.159Z,1017.8
2023-02-06T16:11:49.932Z,1017.8
2023-02-06T16:13:49.883Z,1017.8
2023-02-06T16:15:49.946Z,1017.8
2023-02-06T16:17:49.925Z,1017.9
2023-02-06T16:19:49.867Z,1017.8
2023-02-06T16:21:49.903Z,1017.8
2023-02-06T16:23:49.892Z,1017.8
2023-02-06T16:25:49.903Z,1018.1
2023-02-06T16:27:49.864Z,1017.9
2023-02-06T16:29:49.848Z,1017.8
2023-02-06T16:31:49.869Z,1017.9
2023-02-06T16:33:49.880Z,1017.9
2023-02-06T16:35:49.887Z,1018
2023-02-06T16:37:49.839Z,1018
2023-02-06T16:39:49.896Z,1018
2023-02-06T16:41:49.834Z,1018
2023-02-06T16:43:49.856Z,1018
2023-02-06T16:45:49.918Z,1018
2023-02-06T16:47:49.897Z,1017.9
2023-02-06T16:49:49.846Z,1017.9
2023-02-06T16:51:49.868Z,1017.9
2023-02-06T16:53:49.819Z,1017.8
2023-02-06T16:55:49.823Z,1017.8
2023-02-06T16:57:49.804Z,1017.8
2023-02-06T16:59:49.824Z,1017.9
2023-02-06T17:01:49.829Z,1017.8
2023-02-06T17:03:49.881Z,1017.7
2023-02-06T17:05:49.817Z,1017.8
2023-02-06T17:07:49.835Z,1017.7
2023-02-06T17:09:49.818Z,1017.8
2023-02-06T17:11:49.827Z,1017.8
2023-02-06T17:13:49.830Z,1018
2023-02-06T17:15:49.853Z,1017.9
2023-02-06T17:17:49.823Z,1017.9
2023-02-06T17:19:49.810Z,1017.8
2023-02-06T17:21:49.805Z,1017.7
2023-02-06T17:23:49.790Z,1017.8
2023-02-06T17:25:49.809Z,1017.7
2023-02-06T17:27:49.828Z,1017.9
2023-02-06T17:29:49.813Z,1018
2023-02-06T17:31:49.833Z,1017.9
2023-02-06T17:33:49.765Z,1018
2023-02-06T17:35:49.780Z,1017.8
2023-02-06T17:37:49.784Z,1017.8
2023-02-06T17:39:49.792Z,1017.7
2023-02-06T17:41:49.762Z,1017.8
2023-02-06T17:43:49.843Z,1017.7
2023-02-06T17:45:49.812Z,1017.7
2023-02-06T17:47:49.782Z,1017.7
2023-02-06T17:49:49.796Z,1017.8
2023-02-06T17:51:49.773Z,1017.7
2023-02-06T17:53:49.803Z,1017.6
2023-02-06T17:55:49.762Z,1017.6
2023-02-06T17:57:49.758Z,1017.6
2023-02-06T17:59:49.740Z,1017.6
2023-02-06T18:01:49.786Z,1017.6
2023-02-06T18:03:49.742Z,1017.7
2023-02-06T18:05:49.737Z,1017.6
2023-02-06T18:07:49.765Z,1017.7
2023-02-06T18:09:49.722Z,1017.8
2023-02-06T18:11:49.749Z,1017.8
2023-02-06T18:13:49.723Z,1017.8
2023-02-06T18:15:49.763Z,1017.8
2023-02-06T18:17:49.762Z,1017.9
2023-02-06T18:19:49.741Z,1017.9
2023-02-06T18:21:49.733Z,1017.9
2023-02-06T18:23:49.740Z,1017.9
2023-02-06T18:25:49.731Z,1018
2023-02-06T18:27:49.767Z,1018
2023-02-06T18:29:50.605Z,1018
2023-02-06T18:31:49.795Z,1017.9
2023-02-06T18:33:49.766Z,1018
2023-02-06T18:35:49.698Z,1018
2023-02-06T18:37:49.723Z,1018
2023-02-06T18:39:49.712Z,1018
2023-02-06T18:41:49.686Z,1018.2
2023-02-06T18:43:49.682Z,1018.1
2023-02-06T18:45:49.674Z,1018.2
2023-02-06T18:47:49.682Z,1018.2
2023-02-06T18:49:49.696Z,1018.2
2023-02-06T18:51:49.676Z,1018.2
2023-02-06T18:53:49.726Z,1018.3
2023-02-06T18:55:49.701Z,1018.3
2023-02-06T18:57:49.664Z,1018.2
2023-02-06T18:59:49.688Z,1018.3
2023-02-06T19:01:49.678Z,1018.3
2023-02-06T19:03:49.683Z,1018.3
2023-02-06T19:05:49.712Z,1018.4
2023-02-06T19:07:49.703Z,1018.5
2023-02-06T19:09:49.674Z,1018.5
2023-02-06T19:11:49.662Z,1018.5
2023-02-06T19:13:49.663Z,1018.5
2023-02-06T19:15:49.664Z,1018.6
2023-02-06T19:17:49.664Z,1018.5
2023-02-06T19:19:49.695Z,1018.6
2023-02-06T19:21:49.638Z,1018.6
2023-02-06T19:23:49.671Z,1018.6
2023-02-06T19:25:49.660Z,1018.6
2023-02-06T19:27:49.684Z,1018.6
2023-02-06T19:29:49.675Z,1018.6
2023-02-06T19:31:49.713Z,1018.6
2023-02-06T19:33:49.671Z,1018.6
2023-02-06T19:35:49.639Z,1018.7
2023-02-06T19:37:49.654Z,1018.6
2023-02-06T19:39:49.710Z,1018.5
2023-02-06T19:41:49.633Z,1018.6
2023-02-06T19:43:51.167Z,1018.6
2023-02-06T19:45:49.700Z,1018.7
2023-02-06T19:47:49.648Z,1018.7
2023-02-06T19:49:49.625Z,1018.8
2023-02-06T19:51:49.628Z,1018.8
2023-02-06T19:53:49.716Z,1018.8
2023-02-06T19:55:49.607Z,1018.8
2023-02-06T19:57:49.709Z,1018.8
2023-02-06T19:59:49.683Z,1018.8
2023-02-06T20:01:49.591Z,1018.8
2023-02-06T20:03:49.691Z,1018.9
2023-02-06T20:05:49.654Z,1018.8
2023-02-06T20:07:49.646Z,1018.9
2023-02-06T20:09:49.619Z,1018.9
2023-02-06T20:11:49.612Z,1019
2023-02-06T20:13:49.578Z,1018.9
2023-02-06T20:15:49.585Z,1018.9
2023-02-06T20:17:49.611Z,1019
2023-02-06T20:19:49.593Z,1019
2023-02-06T20:21:49.576Z,1019.1
2023-02-06T20:23:49.622Z,1019.1
2023-02-06T20:25:49.556Z,1019.1
2023-02-06T20:27:49.605Z,1019.1
2023-02-06T20:29:49.619Z,1019.2
2023-02-06T20:31:49.764Z,1019.2
2023-02-06T20:33:49.585Z,1019.3
2023-02-06T20:35:49.705Z,1019.3
2023-02-06T20:37:49.599Z,1019.3
2023-02-06T20:39:49.609Z,1019.3
2023-02-06T20:41:49.610Z,1019.4
2023-02-06T20:43:49.566Z,1019.4
2023-02-06T20:45:49.587Z,1019.4
2023-02-06T20:47:49.550Z,1019.4
2023-02-06T20:49:49.537Z,1019.4
2023-02-06T20:51:49.560Z,1019.5
2023-02-06T20:53:49.591Z,1019.5
2023-02-06T20:55:49.546Z,1019.6
2023-02-06T20:57:49.565Z,1019.6
2023-02-06T20:59:49.542Z,1019.6
2023-02-06T21:01:49.544Z,1019.6
2023-02-06T21:03:49.511Z,1019.7
2023-02-06T21:05:49.547Z,1019.8
2023-02-06T21:07:49.541Z,1019.8
2023-02-06T21:09:49.528Z,1019.8
2023-02-06T21:11:49.567Z,1019.9
2023-02-06T21:13:49.567Z,1019.9
2023-02-06T21:15:49.621Z,1020
2023-02-06T21:17:49.521Z,1020
2023-02-06T21:19:49.529Z,1020
2023-02-06T21:21:49.511Z,1020.1
2023-02-06T21:23:49.536Z,1020.2
2023-02-06T21:25:49.557Z,1020.2
2023-02-06T21:27:49.510Z,1020.2
2023-02-06T21:29:49.514Z,1020.2
2023-02-06T21:31:52.263Z,1020.3
2023-02-06T21:33:49.521Z,1020.3
2023-02-06T21:35:49.514Z,1020.4
2023-02-06T21:37:49.496Z,1020.4
2023-02-06T21:39:49.493Z,1020.4
2023-02-06T21:41:49.528Z,1020.4
2023-02-06T21:43:49.491Z,1020.4
2023-02-06T21:45:49.486Z,1020.4
2023-02-06T21:47:49.517Z,1020.5
2023-02-06T21:49:49.501Z,1020.6
2023-02-06T21:51:49.431Z,1020.7
2023-02-06T21:53:49.531Z,1020.7
2023-02-06T21:55:49.525Z,1020.8
2023-02-06T21:57:49.489Z,1020.9
2023-02-06T21:59:49.496Z,1020.9
2023-02-06T22:01:49.607Z,1021
2023-02-06T22:03:49.605Z,1021.1
2023-02-06T22:05:50.814Z,1021.1
2023-02-06T22:07:49.499Z,1021.1
2023-02-06T22:09:49.513Z,1021.2
2023-02-06T22:11:49.456Z,1021.1
2023-02-06T22:13:49.456Z,1021.2
2023-02-06T22:15:49.501Z,1021.2
2023-02-06T22:17:49.474Z,1021.2
2023-02-06T22:19:49.468Z,1021.3
2023-02-06T22:21:49.429Z,1021.3
2023-02-06T22:23:49.521Z,1021.4
2023-02-06T22:25:49.470Z,1021.4
2023-02-06T22:27:49.481Z,1021.5
2023-02-06T22:29:49.477Z,1021.5
2023-02-06T22:31:49.569Z,1021.6
2023-02-06T22:33:49.421Z,1021.7
2023-02-06T22:35:49.428Z,1021.7
2023-02-06T22:37:49.486Z,1021.8
2023-02-06T22:39:49.448Z,1021.8
2023-02-06T22:41:49.461Z,1021.9
2023-02-06T22:43:49.407Z,1021.8
2023-02-06T22:45:49.415Z,1021.8
2023-02-06T22:47:49.407Z,1021.9
2023-02-06T22:49:49.428Z,1021.9
2023-02-06T22:51:49.451Z,1022
2023-02-06T22:53:49.416Z,1022
2023-02-06T22:55:49.384Z,1022.1
2023-02-06T22:57:49.396Z,1022.1
2023-02-06T22:59:49.389Z,1022.2
2023-02-06T23:01:49.408Z,1022.2
2023-02-06T23:03:49.437Z,1022.2
2023-02-06T23:05:49.381Z,1022.3
2023-02-06T23:07:49.397Z,1022.4
2023-02-06T23:09:49.424Z,1022.4
2023-02-06T23:11:49.358Z,1022.5
2023-02-06T23:13:49.393Z,1022.5
2023-02-06T23:15:49.384Z,1022.6
2023-02-06T23:17:49.373Z,1022.6
2023-02-06T23:19:49.439Z,1022.6
2023-02-06T23:21:49.418Z,1022.7
2023-02-06T23:23:49.435Z,1022.7
2023-02-06T23:25:49.389Z,1022.7
2023-02-06T23:27:49.385Z,1022.8
2023-02-06T23:29:49.418Z,1022.8
2023-02-06T23:31:49.442Z,1022.8
2023-02-06T23:33:49.355Z,1022.9
2023-02-06T23:35:49.357Z,1022.9
2023-02-06T23:37:49.356Z,1022.9
2023-02-06T23:39:49.373Z,1022.9
2023-02-06T23:41:49.397Z,1023
2023-02-06T23:43:49.329Z,1023
2023-02-06T23:45:49.378Z,1023.1
2023-02-06T23:47:49.357Z,1023.2
2023-02-06T23:49:49.377Z,1023.3
2023-02-06T23:51:49.346Z,1023.3
2023-02-06T23:53:49.326Z,1023.3
2023-02-06T23:55:49.336Z,1023.4
2023-02-06T23:57:49.306Z,1023.4
2023-02-06T23:59:49.341Z,1023.5
